createdAt,value
2023-02-12T00:00:21.352Z,11.55
2023-02-12T00:02:47.711Z,10.95
2023-02-12T00:05:16.389Z,11.13
2023-02-12T00:07:42.727Z,11.85
2023-02-12T00:10:09.713Z,11.25
2023-02-12T00:12:36.031Z,11.30
2023-02-12T00:15:02.333Z,12.27
2023-02-12T00:17:29.045Z,10.98
2023-02-12T00:19:55.342Z,10.45
2023-02-12T00:22:21.630Z,11.55
2023-02-12T00:24:47.937Z,12.07
2023-02-12T00:27:14.186Z,11.48
2023-02-12T00:29:40.544Z,12.55
2023-02-12T00:32:07.361Z,10.98
2023-02-12T00:34:33.725Z,11.80
2023-02-12T00:37:00.098Z,10.93
2023-02-12T00:39:26.428Z,12.32
2023-02-12T00:41:52.952Z,13.75
2023-02-12T00:44:19.267Z,13.35
2023-02-12T00:46:45.909Z,13.48
2023-02-12T00:49:12.461Z,12.45
2023-02-12T00:51:38.716Z,12.55
2023-02-12T00:54:05.141Z,13.10
2023-02-12T00:56:31.531Z,11.75
2023-02-12T00:58:58.769Z,11.70
2023-02-12T01:01:25.413Z,12.63
2023-02-12T01:03:51.761Z,12.25
2023-02-12T01:06:18.095Z,12.65
2023-02-12T01:08:44.332Z,11.95
2023-02-12T01:11:12.184Z,12.82
2023-02-12T01:13:38.608Z,11.07
2023-02-12T01:16:14.856Z,13.15
2023-02-12T01:18:41.242Z,12.38
2023-02-12T01:21:11.523Z,12.88
2023-02-12T01:23:37.865Z,12.82
2023-02-12T01:26:04.760Z,13.10
2023-02-12T01:28:31.376Z,11.88
2023-02-12T01:30:58.017Z,12.32
2023-02-12T01:33:24.454Z,12.60
2023-02-12T01:35:50.757Z,10.95
2023-02-12T01:38:17.189Z,12.60
2023-02-12T01:40:43.610Z,13.00
2023-02-12T01:43:11.890Z,13.00
2023-02-12T01:45:45.366Z,12.18
2023-02-12T01:48:12.782Z,12.18
2023-02-12T01:50:39.179Z,12.95
2023-02-12T01:53:05.574Z,12.80
2023-02-12T01:55:32.211Z,13.80
2023-02-12T01:57:58.714Z,12.18
2023-02-12T02:00:25.653Z,12.88
2023-02-12T02:02:56.841Z,13.10
2023-02-12T02:05:27.903Z,12.52
2023-02-12T02:07:54.595Z,12.57
2023-02-12T02:10:20.889Z,13.15
2023-02-12T02:13:06.092Z,13.25
2023-02-12T02:15:33.178Z,12.35
2023-02-12T02:18:02.341Z,13.00
2023-02-12T02:20:47.200Z,13.93
2023-02-12T02:23:13.515Z,13.30
2023-02-12T02:25:58.872Z,13.10
2023-02-12T02:28:31.395Z,13.55
2023-02-12T02:31:00.288Z,13.07
2023-02-12T02:33:36.329Z,13.70
2023-02-12T02:36:05.724Z,13.73
2023-02-12T02:38:57.366Z,13.25
2023-02-12T02:41:50.990Z,13.23
2023-02-12T02:44:21.761Z,14.65
2023-02-12T02:46:50.015Z,14.25
2023-02-12T02:49:27.773Z,13.82
2023-02-12T02:52:00.987Z,14.38
2023-02-12T02:54:39.952Z,14.07
2023-02-12T02:57:10.033Z,14.88
2023-02-12T02:59:38.145Z,13.82
2023-02-12T03:02:08.206Z,14.52
2023-02-12T03:04:37.042Z,14.98
2023-02-12T03:07:07.378Z,12.88
2023-02-12T03:09:36.447Z,14.75
2023-02-12T03:12:23.178Z,14.60
2023-02-12T03:15:01.927Z,14.30
2023-02-12T03:17:32.093Z,14.05
2023-02-12T03:20:07.883Z,13.20
2023-02-12T03:22:35.851Z,13.75
2023-02-12T03:25:34.738Z,15.30
2023-02-12T03:28:01.038Z,13.82
2023-02-12T03:30:39.062Z,14.88
2023-02-12T03:33:13.844Z,14.85
2023-02-12T03:35:48.545Z,14.80
2023-02-12T03:38:26.614Z,14.80
2023-02-12T03:40:59.069Z,13.50
2023-02-12T03:43:29.513Z,13.45
2023-02-12T03:45:59.445Z,14.57
2023-02-12T03:48:44.536Z,14.40
2023-02-12T03:51:15.868Z,14.15
2023-02-12T03:53:44.069Z,15.20
2023-02-12T03:56:13.473Z,15.52
2023-02-12T03:58:41.852Z,14.18
2023-02-12T04:01:08.773Z,14.30
2023-02-12T04:03:35.245Z,15.38
2023-02-12T04:06:01.857Z,16.20
2023-02-12T04:08:28.979Z,15.30
2023-02-12T04:11:07.803Z,14.80
2023-02-12T04:13:43.133Z,14.55
2023-02-12T04:16:18.220Z,15.60
2023-02-12T04:18:45.768Z,13.60
2023-02-12T04:21:38.872Z,15.05
2023-02-12T04:24:23.764Z,15.63
2023-02-12T04:27:03.894Z,15.15
2023-02-12T04:29:40.084Z,15.00
2023-02-12T04:32:16.284Z,14.85
2023-02-12T04:34:50.980Z,15.45
2023-02-12T04:37:26.326Z,15.20
2023-02-12T04:39:53.371Z,14.75
2023-02-12T04:42:19.764Z,14.68
2023-02-12T04:44:46.218Z,15.98
2023-02-12T04:47:16.672Z,16.17
2023-02-12T04:49:43.194Z,15.32
2023-02-12T04:52:09.784Z,16.15
2023-02-12T04:54:36.147Z,15.02
2023-02-12T04:57:03.094Z,17.25
2023-02-12T04:59:29.434Z,17.10
2023-02-12T05:01:55.797Z,16.23
2023-02-12T05:04:22.153Z,15.20
2023-02-12T05:06:48.614Z,15.13
2023-02-12T05:09:16.779Z,16.33
2023-02-12T05:11:43.412Z,15.55
2023-02-12T05:14:09.826Z,15.93
2023-02-12T05:16:36.254Z,16.75
2023-02-12T05:19:03.038Z,17.17
2023-02-12T05:21:29.434Z,15.93
2023-02-12T05:23:55.732Z,15.88
2023-02-12T05:26:22.295Z,16.83
2023-02-12T05:28:48.614Z,16.25
2023-02-12T05:31:17.389Z,16.63
2023-02-12T05:33:45.938Z,15.57
2023-02-12T05:36:13.587Z,15.93
2023-02-12T05:38:40.235Z,16.70
2023-02-12T05:41:17.205Z,16.17
2023-02-12T05:43:43.951Z,16.83
2023-02-12T05:46:10.863Z,16.42
2023-02-12T05:48:38.161Z,16.27
2023-02-12T05:51:09.186Z,17.88
2023-02-12T05:53:35.693Z,15.43
2023-02-12T05:56:08.018Z,17.05
2023-02-12T05:58:34.404Z,15.57
2023-02-12T06:01:00.720Z,16.00
2023-02-12T06:03:27.439Z,17.20
2023-02-12T06:05:54.207Z,16.30
2023-02-12T06:08:20.783Z,15.35
2023-02-12T06:10:47.098Z,14.85
2023-02-12T06:13:13.406Z,16.23
2023-02-12T06:15:39.728Z,16.38
2023-02-12T06:18:06.026Z,16.45
2023-02-12T06:20:32.498Z,16.60
2023-02-12T06:22:59.193Z,16.60
2023-02-12T06:25:25.566Z,16.73
2023-02-12T06:27:51.880Z,17.33
2023-02-12T06:30:18.214Z,16.58
2023-02-12T06:32:44.505Z,16.65
2023-02-12T06:35:10.799Z,16.10
2023-02-12T06:37:38.198Z,15.90
2023-02-12T06:40:04.960Z,17.42
2023-02-12T06:42:33.086Z,16.15
2023-02-12T06:44:59.535Z,16.50
2023-02-12T06:47:26.911Z,16.73
2023-02-12T06:49:53.202Z,15.98
2023-02-12T06:52:21.108Z,16.33
2023-02-12T06:54:47.384Z,16.95
2023-02-12T06:57:13.639Z,17.30
2023-02-12T06:59:39.897Z,16.20
2023-02-12T07:02:06.646Z,16.17
2023-02-12T07:04:37.479Z,16.42
2023-02-12T07:07:04.205Z,16.13
2023-02-12T07:09:30.631Z,17.05
2023-02-12T07:12:00.162Z,16.67
2023-02-12T07:14:28.337Z,16.75
2023-02-12T07:16:57.190Z,15.52
2023-02-12T07:19:24.382Z,15.65
2023-02-12T07:21:50.721Z,15.88
2023-02-12T07:24:18.296Z,15.63
2023-02-12T07:26:44.764Z,16.98
2023-02-12T07:29:11.121Z,17.13
2023-02-12T07:31:37.540Z,16.58
2023-02-12T07:34:04.131Z,15.40
2023-02-12T07:36:31.533Z,16.42
2023-02-12T07:38:58.684Z,16.58
2023-02-12T07:41:26.041Z,17.92
2023-02-12T07:43:59.666Z,16.45
2023-02-12T07:46:33.420Z,16.30
2023-02-12T07:49:00.536Z,16.63
2023-02-12T07:51:27.213Z,16.23
2023-02-12T07:53:53.995Z,16.80
2023-02-12T07:56:21.841Z,15.20
2023-02-12T07:58:49.657Z,16.85
2023-02-12T08:01:15.921Z,15.38
2023-02-12T08:03:42.586Z,15.90
2023-02-12T08:06:11.304Z,15.57
2023-02-12T08:08:38.854Z,17.45
2023-02-12T08:11:06.798Z,15.52
2023-02-12T08:13:34.106Z,16.52
2023-02-12T08:16:01.336Z,16.08
2023-02-12T08:18:27.883Z,15.43
2023-02-12T08:20:54.137Z,15.50
2023-02-12T08:23:20.745Z,15.68
2023-02-12T08:25:47.033Z,14.65
2023-02-12T08:28:13.394Z,14.80
2023-02-12T08:30:42.287Z,15.75
2023-02-12T08:33:08.581Z,15.00
2023-02-12T08:35:34.868Z,15.45
2023-02-12T08:38:01.248Z,14.57
2023-02-12T08:40:27.969Z,14.48
2023-02-12T08:42:54.271Z,15.25
2023-02-12T08:45:20.598Z,14.90
2023-02-12T08:47:47.886Z,14.15
2023-02-12T08:50:14.190Z,12.93
2023-02-12T08:52:42.969Z,13.02
2023-02-12T08:55:09.446Z,14.95
2023-02-12T08:57:35.828Z,14.68
2023-02-12T09:00:02.347Z,13.63
2023-02-12T09:02:28.735Z,13.95
2023-02-12T09:04:55.078Z,13.52
2023-02-12T09:07:21.385Z,14.45
2023-02-12T09:09:47.701Z,13.95
2023-02-12T09:12:13.943Z,13.77
2023-02-12T09:14:40.252Z,15.13
2023-02-12T09:17:06.632Z,14.68
2023-02-12T09:19:33.429Z,13.35
2023-02-12T09:21:59.761Z,12.85
2023-02-12T09:24:27.464Z,13.65
2023-02-12T09:26:54.016Z,13.05
2023-02-12T09:29:20.333Z,13.88
2023-02-12T09:31:47.079Z,13.77
2023-02-12T09:34:13.990Z,12.93
2023-02-12T09:36:40.318Z,12.73
2023-02-12T09:39:06.611Z,12.88
2023-02-12T09:41:51.650Z,11.43
2023-02-12T09:44:35.866Z,10.97
2023-02-12T09:47:14.102Z,11.15
2023-02-12T09:49:46.497Z,10.93
2023-02-12T09:52:24.575Z,11.48
2023-02-12T09:54:51.029Z,10.65
2023-02-12T09:57:25.042Z,11.18
2023-02-12T09:59:52.754Z,11.07
2023-02-12T10:02:19.969Z,11.50
2023-02-12T10:05:00.162Z,10.93
2023-02-12T10:07:39.954Z,12.43
2023-02-12T10:10:12.556Z,10.93
2023-02-12T10:12:38.882Z,10.68
2023-02-12T10:15:05.335Z,11.18
2023-02-12T10:17:37.703Z,11.20
2023-02-12T10:20:23.008Z,10.55
2023-02-12T10:22:56.733Z,11.23
2023-02-12T10:25:32.787Z,11.10
2023-02-12T10:30:40.447Z,10.90
2023-02-12T10:33:11.788Z,11.13
2023-02-12T10:35:43.729Z,11.30
2023-02-12T10:38:19.490Z,13.05
2023-02-12T10:40:46.028Z,12.30
2023-02-12T10:43:13.302Z,11.43
2023-02-12T10:45:40.414Z,12.50
2023-02-12T10:48:15.865Z,13.48
2023-02-12T10:50:49.992Z,12.30
2023-02-12T10:53:23.807Z,12.02
2023-02-12T10:55:50.516Z,13.02
2023-02-12T10:58:19.443Z,13.25
2023-02-12T11:00:46.125Z,12.65
2023-02-12T11:03:12.471Z,13.63
2023-02-12T11:05:40.029Z,13.85
2023-02-12T11:08:07.163Z,14.00
2023-02-12T11:10:38.518Z,14.57
2023-02-12T11:13:05.148Z,13.63
2023-02-12T11:15:46.293Z,14.00
2023-02-12T11:18:21.018Z,13.75
2023-02-12T11:20:51.351Z,14.38
2023-02-12T11:23:28.234Z,15.02
2023-02-12T11:25:56.773Z,14.30
2023-02-12T11:28:23.584Z,15.07
2023-02-12T11:30:49.985Z,14.02
2023-02-12T11:33:17.545Z,14.90
2023-02-12T11:35:52.374Z,15.43
2023-02-12T11:38:23.751Z,14.80
2023-02-12T11:40:52.811Z,15.38
2023-02-12T11:43:19.565Z,16.33
2023-02-12T11:45:48.062Z,15.73
2023-02-12T11:48:19.543Z,14.57
2023-02-12T11:50:47.739Z,15.25
2023-02-12T11:53:20.731Z,15.20
2023-02-12T11:55:54.326Z,16.00
2023-02-12T11:58:22.252Z,15.55
2023-02-12T12:00:58.562Z,16.13
2023-02-12T12:03:42.982Z,14.75
2023-02-12T12:06:18.542Z,14.50
2023-02-12T12:11:34.233Z,11.93
2023-02-12T12:14:08.108Z,12.13
2023-02-12T12:16:57.081Z,13.10
2023-02-12T12:19:56.260Z,14.15
2023-02-12T12:22:44.404Z,14.48
2023-02-12T12:25:10.727Z,14.13
2023-02-12T12:27:55.563Z,14.43
2023-02-12T12:30:29.744Z,14.65
2023-02-12T12:32:58.503Z,13.98
2023-02-12T12:35:33.604Z,12.98
2023-02-12T12:38:20.014Z,13.32
2023-02-12T12:41:00.490Z,13.43
2023-02-12T12:43:45.535Z,14.07
2023-02-12T12:46:11.896Z,14.10
2023-02-12T12:48:51.691Z,13.02
2023-02-12T12:51:24.166Z,14.05
2023-02-12T12:53:57.152Z,13.63
2023-02-12T12:56:35.338Z,13.27
2023-02-12T12:59:04.632Z,11.95
2023-02-12T13:01:49.911Z,11.07
2023-02-12T13:04:30.308Z,10.07
2023-02-12T13:07:05.528Z,9.30
2023-02-12T13:09:50.606Z,10.07
2023-02-12T13:12:22.940Z,9.40
2023-02-12T13:14:55.430Z,10.13
2023-02-12T13:17:46.108Z,10.13
2023-02-12T13:20:30.835Z,10.10
2023-02-12T13:23:05.652Z,10.68
2023-02-12T13:25:38.886Z,10.27
2023-02-12T13:28:05.967Z,9.55
2023-02-12T13:31:09.479Z,9.93
2023-02-12T13:33:44.862Z,9.50
2023-02-12T13:36:13.765Z,10.35
2023-02-12T13:38:50.613Z,10.23
2023-02-12T13:41:17.477Z,10.27
2023-02-12T13:43:46.565Z,9.95
2023-02-12T13:46:19.262Z,9.63
2023-02-12T13:49:02.867Z,9.43
2023-02-12T13:51:44.334Z,10.10
2023-02-12T13:54:26.018Z,10.45
2023-02-12T13:56:53.960Z,10.43
2023-02-12T13:59:32.928Z,9.80
2023-02-12T14:02:00.281Z,8.55
2023-02-12T14:04:28.885Z,9.20
2023-02-12T14:07:01.799Z,10.18
2023-02-12T14:09:47.559Z,9.90
2023-02-12T14:12:13.840Z,9.05
2023-02-12T14:14:50.749Z,8.68
2023-02-12T14:17:29.481Z,9.07
2023-02-12T14:19:57.952Z,8.85
2023-02-12T14:22:24.199Z,9.35
2023-02-12T14:24:51.784Z,8.95
2023-02-12T14:27:21.151Z,9.25
2023-02-12T14:30:00.726Z,10.00
2023-02-12T14:32:45.759Z,9.20
2023-02-12T14:35:28.070Z,9.43
2023-02-12T14:37:55.007Z,10.23
2023-02-12T14:40:37.618Z,10.35
2023-02-12T14:43:04.995Z,9.25
2023-02-12T14:45:35.502Z,10.07
2023-02-12T14:48:02.959Z,10.02
2023-02-12T14:50:31.166Z,10.25
2023-02-12T14:53:00.156Z,10.20
2023-02-12T14:55:28.493Z,9.85
2023-02-12T14:57:57.185Z,9.77
2023-02-12T15:00:28.363Z,10.88
2023-02-12T15:02:58.463Z,10.32
2023-02-12T15:05:33.253Z,10.38
2023-02-12T15:08:02.415Z,9.88
2023-02-12T15:10:32.091Z,11.15
2023-02-12T15:13:13.389Z,10.20
2023-02-12T15:15:42.882Z,10.40
2023-02-12T15:18:27.515Z,10.80
2023-02-12T15:21:03.199Z,9.95
2023-02-12T15:23:35.462Z,9.50
2023-02-12T15:26:03.421Z,9.50
2023-02-12T15:28:36.455Z,11.27
2023-02-12T15:31:04.889Z,9.90
2023-02-12T15:33:33.110Z,10.18
2023-02-12T15:36:00.863Z,9.70
2023-02-12T15:38:37.495Z,10.63
2023-02-12T15:41:04.904Z,10.88
2023-02-12T15:43:35.054Z,10.18
2023-02-12T15:46:03.110Z,10.55
2023-02-12T15:48:31.859Z,10.82
2023-02-12T15:51:04.367Z,11.10
2023-02-12T15:53:30.870Z,11.50
2023-02-12T15:55:57.678Z,11.98
2023-02-12T15:58:29.606Z,10.40
2023-02-12T16:00:59.817Z,11.30
2023-02-12T16:03:30.425Z,10.63
2023-02-12T16:06:00.752Z,10.35
2023-02-12T16:08:27.273Z,11.32
2023-02-12T16:10:54.385Z,10.63
2023-02-12T16:13:38.662Z,11.80
2023-02-12T16:16:07.196Z,11.07
2023-02-12T16:18:33.607Z,11.52
2023-02-12T16:21:12.007Z,11.70
2023-02-12T16:23:38.467Z,11.50
2023-02-12T16:26:05.488Z,10.48
2023-02-12T16:28:32.189Z,10.48
2023-02-12T16:31:09.639Z,10.25
2023-02-12T16:33:45.445Z,10.68
2023-02-12T16:36:12.058Z,10.07
2023-02-12T16:38:45.722Z,11.57
2023-02-12T16:41:12.076Z,10.95
2023-02-12T16:43:38.878Z,10.48
2023-02-12T16:46:05.770Z,12.00
2023-02-12T16:48:36.924Z,10.55
2023-02-12T16:51:06.060Z,9.10
2023-02-12T16:53:35.021Z,10.13
2023-02-12T16:56:01.964Z,10.55
2023-02-12T16:58:28.567Z,11.25
2023-02-12T17:00:55.536Z,10.65
2023-02-12T17:03:22.237Z,11.90
2023-02-12T17:05:49.416Z,11.40
2023-02-12T17:08:17.357Z,10.27
2023-02-12T17:10:44.771Z,12.68
2023-02-12T17:13:11.444Z,12.43
2023-02-12T17:15:42.710Z,11.18
2023-02-12T17:18:11.369Z,11.65
2023-02-12T17:20:37.869Z,12.43
2023-02-12T17:23:04.757Z,12.90
2023-02-12T17:25:31.812Z,11.85
2023-02-12T17:27:58.448Z,12.60
2023-02-12T17:30:26.398Z,12.20
2023-02-12T17:32:52.727Z,12.82
2023-02-12T17:35:19.036Z,12.60
2023-02-12T17:37:45.406Z,12.95
2023-02-12T17:40:12.623Z,14.10
2023-02-12T17:42:39.180Z,12.38
2023-02-12T17:45:05.824Z,14.50
2023-02-12T17:47:33.482Z,13.48
2023-02-12T17:50:01.953Z,11.52
2023-02-12T17:52:28.400Z,14.18
2023-02-12T17:54:54.693Z,14.70
2023-02-12T17:57:20.983Z,13.00
2023-02-12T17:59:47.266Z,13.93
2023-02-12T18:02:13.566Z,13.90
2023-02-12T18:04:39.953Z,14.05
2023-02-12T18:07:06.318Z,13.52
2023-02-12T18:09:33.096Z,13.68
2023-02-12T18:11:59.455Z,13.15
2023-02-12T18:14:25.843Z,13.48
2023-02-12T18:16:52.204Z,14.57
2023-02-12T18:19:18.653Z,13.80
2023-02-12T18:21:45.009Z,14.27
2023-02-12T18:24:11.312Z,15.18
2023-02-12T18:26:37.699Z,15.80
2023-02-12T18:29:03.993Z,15.93
2023-02-12T18:31:30.504Z,18.27
2023-02-12T18:33:57.256Z,18.25
2023-02-12T18:36:23.921Z,18.00
2023-02-12T18:38:51.049Z,17.75
2023-02-12T18:41:21.663Z,17.25
2023-02-12T18:43:48.106Z,15.30
2023-02-12T18:46:19.223Z,15.20
2023-02-12T18:48:45.732Z,14.77
2023-02-12T18:51:17.039Z,16.40
2023-02-12T18:53:43.587Z,16.75
2023-02-12T18:56:10.735Z,15.40
2023-02-12T18:58:37.558Z,14.70
2023-02-12T19:01:14.233Z,15.35
2023-02-12T19:03:40.801Z,15.50
2023-02-12T19:06:07.214Z,15.52
2023-02-12T19:08:33.491Z,14.85
2023-02-12T19:10:59.885Z,15.32
2023-02-12T19:13:26.470Z,16.15
2023-02-12T19:15:52.938Z,13.70
2023-02-12T19:18:19.592Z,15.48
2023-02-12T19:20:45.918Z,16.73
2023-02-12T19:23:12.345Z,16.25
2023-02-12T19:25:42.693Z,16.67
2023-02-12T19:28:09.772Z,17.73
2023-02-12T19:30:36.891Z,17.83
2023-02-12T19:33:03.835Z,17.73
2023-02-12T19:35:30.263Z,17.73
2023-02-12T19:37:56.615Z,17.25
2023-02-12T19:40:23.125Z,19.63
2023-02-12T19:42:49.455Z,18.52
2023-02-12T19:45:15.785Z,17.85
2023-02-12T19:47:42.113Z,19.25
2023-02-12T19:50:08.635Z,19.08
2023-02-12T19:52:34.945Z,19.98
2023-02-12T19:55:01.203Z,20.77
2023-02-12T19:57:27.561Z,19.58
2023-02-12T19:59:53.994Z,19.63
2023-02-12T20:02:20.348Z,20.88
2023-02-12T20:04:47.241Z,18.95
2023-02-12T20:07:13.567Z,18.55
2023-02-12T20:09:40.205Z,17.98
2023-02-12T20:12:06.604Z,18.45
2023-02-12T20:14:32.978Z,18.23
2023-02-12T20:16:59.316Z,17.77
2023-02-12T20:19:27.439Z,18.25
2023-02-12T20:21:55.935Z,18.30
2023-02-12T20:24:23.036Z,17.00
2023-02-12T20:26:49.744Z,18.38
2023-02-12T20:29:16.165Z,16.98
2023-02-12T20:31:42.796Z,19.20
2023-02-12T20:34:11.707Z,17.33
2023-02-12T20:36:38.693Z,18.08
2023-02-12T20:39:05.960Z,18.10
2023-02-12T20:41:33.348Z,18.60
2023-02-12T20:44:00.708Z,17.45
2023-02-12T20:46:27.459Z,17.50
2023-02-12T20:48:54.349Z,19.08
2023-02-12T20:51:21.841Z,17.67
2023-02-12T20:53:48.651Z,17.95
2023-02-12T20:56:16.207Z,17.55
2023-02-12T20:58:44.835Z,17.83
2023-02-12T21:01:21.542Z,18.40
2023-02-12T21:03:48.651Z,17.98
2023-02-12T21:06:14.982Z,18.83
2023-02-12T21:08:41.829Z,18.10
2023-02-12T21:11:14.817Z,17.95
2023-02-12T21:13:53.702Z,17.17
2023-02-12T21:16:27.174Z,19.73
2023-02-12T21:18:53.937Z,17.77
2023-02-12T21:21:21.325Z,18.95
2023-02-12T21:23:47.714Z,19.05
2023-02-12T21:26:15.322Z,17.20
2023-02-12T21:28:42.040Z,18.15
2023-02-12T21:31:09.625Z,17.42
2023-02-12T21:33:36.342Z,16.65
2023-02-12T21:36:04.293Z,17.10
2023-02-12T21:38:40.131Z,17.05
2023-02-12T21:41:17.700Z,17.02
2023-02-12T21:43:45.132Z,16.77
2023-02-12T21:46:11.691Z,18.02
2023-02-12T21:48:39.252Z,17.80
2023-02-12T21:51:06.012Z,18.58
2023-02-12T21:53:32.372Z,18.65
2023-02-12T21:56:02.953Z,18.85
2023-02-12T21:58:29.245Z,18.98
2023-02-12T22:00:55.917Z,21.15
2023-02-12T22:03:22.532Z,20.92
2023-02-12T22:05:48.902Z,22.10
2023-02-12T22:08:15.209Z,20.25
2023-02-12T22:10:41.577Z,20.40
2023-02-12T22:13:07.961Z,18.77
2023-02-12T22:15:34.270Z,19.98
2023-02-12T22:18:00.613Z,20.20
2023-02-12T22:20:27.454Z,19.67
2023-02-12T22:22:53.702Z,18.83
2023-02-12T22:25:20.064Z,19.08
2023-02-12T22:27:46.358Z,18.60
2023-02-12T22:30:12.888Z,19.30
2023-02-12T22:32:39.363Z,18.30
2023-02-12T22:35:05.977Z,19.48
2023-02-12T22:37:32.677Z,19.15
2023-02-12T22:39:58.944Z,19.50
2023-02-12T22:42:25.466Z,19.15
2023-02-12T22:44:51.806Z,18.80
2023-02-12T22:47:18.228Z,18.50
2023-02-12T22:49:44.594Z,18.58
2023-02-12T22:52:10.900Z,18.27
2023-02-12T22:54:37.313Z,18.25
2023-02-12T22:57:03.694Z,19.85
2023-02-12T22:59:30.020Z,18.60
2023-02-12T23:01:57.774Z,18.35
2023-02-12T23:04:24.076Z,19.23
2023-02-12T23:06:50.621Z,17.55
2023-02-12T23:09:19.166Z,18.30
2023-02-12T23:11:46.158Z,19.73
2023-02-12T23:14:12.487Z,17.27
2023-02-12T23:16:39.009Z,19.08
2023-02-12T23:19:05.464Z,19.10
2023-02-12T23:21:32.301Z,17.83
2023-02-12T23:24:01.430Z,17.77
2023-02-12T23:26:28.637Z,16.33
2023-02-12T23:28:55.593Z,18.23
2023-02-12T23:31:22.313Z,17.60
2023-02-12T23:33:48.710Z,17.63
2023-02-12T23:36:15.227Z,16.67
2023-02-12T23:38:41.551Z,17.92
2023-02-12T23:41:08.008Z,18.13
2023-02-12T23:43:34.362Z,16.40
2023-02-12T23:46:01.095Z,16.77
2023-02-12T23:48:27.633Z,17.20
2023-02-12T23:50:54.031Z,16.35
2023-02-12T23:53:20.438Z,15.70
2023-02-12T23:55:48.933Z,16.05
2023-02-12T23:58:15.318Z,17.20
